sensor_id;sensor_type;location;lat;lon;timestamp;temperature;humidity
43099;DHT22;28715;51.988;6.020;2023-03-01T00:01:23;1.80;87.10
43099;DHT22;28715;51.988;6.020;2023-03-01T00:03:49;1.90;86.90
43099;DHT22;28715;51.988;6.020;2023-03-01T00:06:15;1.90;86.80
43099;DHT22;28715;51.988;6.020;2023-03-01T00:08:40;1.90;87.00
43099;DHT22;28715;51.988;6.020;2023-03-01T00:13:36;1.90;87.30
43099;DHT22;28715;51.988;6.020;2023-03-01T00:16:07;1.90;87.40
43099;DHT22;28715;51.988;6.020;2023-03-01T00:18:33;1.90;87.40
43099;DHT22;28715;51.988;6.020;2023-03-01T00:20:58;1.90;87.80
43099;DHT22;28715;51.988;6.020;2023-03-01T00:23:25;1.90;87.90
43099;DHT22;28715;51.988;6.020;2023-03-01T00:25:51;1.80;87.80
43099;DHT22;28715;51.988;6.020;2023-03-01T00:28:17;1.80;87.30
43099;DHT22;28715;51.988;6.020;2023-03-01T00:30:43;1.80;87.90
43099;DHT22;28715;51.988;6.020;2023-03-01T00:33:09;1.80;87.50
43099;DHT22;28715;51.988;6.020;2023-03-01T00:35:35;1.80;87.40
43099;DHT22;28715;51.988;6.020;2023-03-01T00:38:01;1.80;87.40
43099;DHT22;28715;51.988;6.020;2023-03-01T00:40:28;1.80;87.70
43099;DHT22;28715;51.988;6.020;2023-03-01T00:42:54;1.80;87.90
43099;DHT22;28715;51.988;6.020;2023-03-01T00:45:20;1.70;88.10
43099;DHT22;28715;51.988;6.020;2023-03-01T00:47:45;1.70;88.20
43099;DHT22;28715;51.988;6.020;2023-03-01T00:50:11;1.70;88.60
43099;DHT22;28715;51.988;6.020;2023-03-01T00:52:37;1.60;88.70
43099;DHT22;28715;51.988;6.020;2023-03-01T00:55:04;1.60;89.00
43099;DHT22;28715;51.988;6.020;2023-03-01T00:57:30;1.60;89.20
43099;DHT22;28715;51.988;6.020;2023-03-01T00:59:56;1.60;89.50
43099;DHT22;28715;51.988;6.020;2023-03-01T01:02:22;1.50;89.60
43099;DHT22;28715;51.988;6.020;2023-03-01T01:04:47;1.50;89.60
43099;DHT22;28715;51.988;6.020;2023-03-01T01:07:14;1.50;90.10
43099;DHT22;28715;51.988;6.020;2023-03-01T01:09:39;1.50;89.60
43099;DHT22;28715;51.988;6.020;2023-03-01T01:12:05;1.50;89.70
43099;DHT22;28715;51.988;6.020;2023-03-01T01:14:31;1.50;89.50
43099;DHT22;28715;51.988;6.020;2023-03-01T01:16:57;1.50;89.40
43099;DHT22;28715;51.988;6.020;2023-03-01T01:19:23;1.40;89.50
43099;DHT22;28715;51.988;6.020;2023-03-01T01:21:49;1.50;89.70
43099;DHT22;28715;51.988;6.020;2023-03-01T01:24:15;1.40;89.90
43099;DHT22;28715;51.988;6.020;2023-03-01T01:26:42;1.40;90.00
43099;DHT22;28715;51.988;6.020;2023-03-01T01:29:08;1.40;90.00
43099;DHT22;28715;51.988;6.020;2023-03-01T01:31:36;1.40;90.10
43099;DHT22;28715;51.988;6.020;2023-03-01T01:34:05;1.30;90.10
43099;DHT22;28715;51.988;6.020;2023-03-01T01:36:32;1.30;90.00
43099;DHT22;28715;51.988;6.020;2023-03-01T01:38:58;1.30;90.10
43099;DHT22;28715;51.988;6.020;2023-03-01T01:41:25;1.20;90.00
43099;DHT22;28715;51.988;6.020;2023-03-01T01:44:21;1.20;90.00
43099;DHT22;28715;51.988;6.020;2023-03-01T01:47:01;1.10;89.60
43099;DHT22;28715;51.988;6.020;2023-03-01T01:52:09;1.00;89.80
43099;DHT22;28715;51.988;6.020;2023-03-01T01:54:54;1.00;89.60
43099;DHT22;28715;51.988;6.020;2023-03-01T01:57:43;1.00;89.90
43099;DHT22;28715;51.988;6.020;2023-03-01T02:00:14;0.90;90.00
43099;DHT22;28715;51.988;6.020;2023-03-01T02:02:40;0.80;90.00
43099;DHT22;28715;51.988;6.020;2023-03-01T02:08:05;0.70;90.30
43099;DHT22;28715;51.988;6.020;2023-03-01T02:10:33;0.70;90.30
43099;DHT22;28715;51.988;6.020;2023-03-01T02:13:00;0.60;90.40
43099;DHT22;28715;51.988;6.020;2023-03-01T02:15:26;0.60;90.50
43099;DHT22;28715;51.988;6.020;2023-03-01T02:17:56;0.60;90.60
43099;DHT22;28715;51.988;6.020;2023-03-01T02:20:24;0.60;90.50
43099;DHT22;28715;51.988;6.020;2023-03-01T02:22:52;0.60;90.50
43099;DHT22;28715;51.988;6.020;2023-03-01T02:25:40;0.60;90.50
43099;DHT22;28715;51.988;6.020;2023-03-01T02:30:46;0.60;90.60
43099;DHT22;28715;51.988;6.020;2023-03-01T02:33:34;0.60;90.50
43099;DHT22;28715;51.988;6.020;2023-03-01T02:36:03;0.60;90.60
43099;DHT22;28715;51.988;6.020;2023-03-01T02:38:30;0.50;90.70
43099;DHT22;28715;51.988;6.020;2023-03-01T02:40:57;0.60;90.70
43099;DHT22;28715;51.988;6.020;2023-03-01T02:43:27;0.60;90.70
43099;DHT22;28715;51.988;6.020;2023-03-01T02:45:58;0.50;90.60
43099;DHT22;28715;51.988;6.020;2023-03-01T02:48:23;0.60;90.60
43099;DHT22;28715;51.988;6.020;2023-03-01T02:51:06;0.60;90.80
43099;DHT22;28715;51.988;6.020;2023-03-01T02:53:48;0.60;90.70
43099;DHT22;28715;51.988;6.020;2023-03-01T02:56:18;0.60;90.70
43099;DHT22;28715;51.988;6.020;2023-03-01T02:58:48;0.70;90.60
43099;DHT22;28715;51.988;6.020;2023-03-01T03:01:20;0.70;90.80
43099;DHT22;28715;51.988;6.020;2023-03-01T03:03:46;0.70;90.80
43099;DHT22;28715;51.988;6.020;2023-03-01T03:06:12;0.70;90.80
43099;DHT22;28715;51.988;6.020;2023-03-01T03:08:37;0.70;90.90
43099;DHT22;28715;51.988;6.020;2023-03-01T03:11:03;0.70;90.90
43099;DHT22;28715;51.988;6.020;2023-03-01T03:13:29;0.70;91.10
43099;DHT22;28715;51.988;6.020;2023-03-01T03:15:57;0.70;91.10
43099;DHT22;28715;51.988;6.020;2023-03-01T03:18:24;0.70;91.10
43099;DHT22;28715;51.988;6.020;2023-03-01T03:20:52;0.70;91.20
43099;DHT22;28715;51.988;6.020;2023-03-01T03:23:19;0.70;91.10
43099;DHT22;28715;51.988;6.020;2023-03-01T03:25:50;0.60;91.10
43099;DHT22;28715;51.988;6.020;2023-03-01T03:28:17;0.60;91.20
43099;DHT22;28715;51.988;6.020;2023-03-01T03:30:43;0.60;91.30
43099;DHT22;28715;51.988;6.020;2023-03-01T03:33:12;0.60;91.60
43099;DHT22;28715;51.988;6.020;2023-03-01T03:35:46;0.60;91.30
43099;DHT22;28715;51.988;6.020;2023-03-01T03:38:14;0.60;91.40
43099;DHT22;28715;51.988;6.020;2023-03-01T03:40:49;0.60;91.30
43099;DHT22;28715;51.988;6.020;2023-03-01T03:43:17;0.60;91.40
43099;DHT22;28715;51.988;6.020;2023-03-01T03:45:44;0.60;91.40
43099;DHT22;28715;51.988;6.020;2023-03-01T03:48:10;0.60;91.50
43099;DHT22;28715;51.988;6.020;2023-03-01T03:50:37;0.50;91.50
43099;DHT22;28715;51.988;6.020;2023-03-01T03:53:05;0.50;91.50
43099;DHT22;28715;51.988;6.020;2023-03-01T03:55:31;0.50;91.50
43099;DHT22;28715;51.988;6.020;2023-03-01T03:58:00;0.50;91.50
43099;DHT22;28715;51.988;6.020;2023-03-01T04:00:33;0.50;91.70
43099;DHT22;28715;51.988;6.020;2023-03-01T04:02:59;0.50;91.80
43099;DHT22;28715;51.988;6.020;2023-03-01T04:05:26;0.50;91.90
43099;DHT22;28715;51.988;6.020;2023-03-01T04:07:52;0.40;91.80
43099;DHT22;28715;51.988;6.020;2023-03-01T04:10:27;0.40;91.80
43099;DHT22;28715;51.988;6.020;2023-03-01T04:12:53;0.40;91.70
43099;DHT22;28715;51.988;6.020;2023-03-01T04:15:21;0.40;91.70
43099;DHT22;28715;51.988;6.020;2023-03-01T04:17:50;0.40;91.70
43099;DHT22;28715;51.988;6.020;2023-03-01T04:20:20;0.30;91.80
43099;DHT22;28715;51.988;6.020;2023-03-01T04:23:02;0.30;91.90
43099;DHT22;28715;51.988;6.020;2023-03-01T04:25:50;0.30;92.10
43099;DHT22;28715;51.988;6.020;2023-03-01T04:28:34;0.30;92.10
43099;DHT22;28715;51.988;6.020;2023-03-01T04:31:04;0.30;92.00
43099;DHT22;28715;51.988;6.020;2023-03-01T04:33:39;0.30;92.00
43099;DHT22;28715;51.988;6.020;2023-03-01T04:36:06;0.30;91.90
43099;DHT22;28715;51.988;6.020;2023-03-01T04:38:34;0.20;92.00
43099;DHT22;28715;51.988;6.020;2023-03-01T04:41:03;0.20;92.00
43099;DHT22;28715;51.988;6.020;2023-03-01T04:43:29;0.30;92.10
43099;DHT22;28715;51.988;6.020;2023-03-01T04:45:54;0.20;92.00
43099;DHT22;28715;51.988;6.020;2023-03-01T04:48:20;0.20;92.00
43099;DHT22;28715;51.988;6.020;2023-03-01T04:50:45;0.20;92.10
43099;DHT22;28715;51.988;6.020;2023-03-01T04:53:11;0.30;92.00
43099;DHT22;28715;51.988;6.020;2023-03-01T04:55:36;0.30;92.10
43099;DHT22;28715;51.988;6.020;2023-03-01T04:58:02;0.30;92.10
43099;DHT22;28715;51.988;6.020;2023-03-01T05:00:27;0.20;92.00
43099;DHT22;28715;51.988;6.020;2023-03-01T05:02:55;0.20;92.00
43099;DHT22;28715;51.988;6.020;2023-03-01T05:05:24;0.20;92.10
43099;DHT22;28715;51.988;6.020;2023-03-01T05:07:51;0.20;92.30
43099;DHT22;28715;51.988;6.020;2023-03-01T05:10:17;0.20;92.40
43099;DHT22;28715;51.988;6.020;2023-03-01T05:12:42;0.20;92.50
43099;DHT22;28715;51.988;6.020;2023-03-01T05:15:08;0.20;92.30
43099;DHT22;28715;51.988;6.020;2023-03-01T05:17:34;0.20;92.20
43099;DHT22;28715;51.988;6.020;2023-03-01T05:20:00;0.20;92.20
43099;DHT22;28715;51.988;6.020;2023-03-01T05:22:26;0.20;92.30
43099;DHT22;28715;51.988;6.020;2023-03-01T05:24:52;0.10;92.70
43099;DHT22;28715;51.988;6.020;2023-03-01T05:27:19;0.10;92.50
43099;DHT22;28715;51.988;6.020;2023-03-01T05:29:47;0.10;92.60
43099;DHT22;28715;51.988;6.020;2023-03-01T05:32:13;0.10;92.60
43099;DHT22;28715;51.988;6.020;2023-03-01T05:34:41;0.10;92.70
43099;DHT22;28715;51.988;6.020;2023-03-01T05:37:07;0.10;92.70
43099;DHT22;28715;51.988;6.020;2023-03-01T05:39:36;0.10;92.80
43099;DHT22;28715;51.988;6.020;2023-03-01T05:42:02;0.10;92.80
43099;DHT22;28715;51.988;6.020;2023-03-01T05:44:29;0.10;92.80
43099;DHT22;28715;51.988;6.020;2023-03-01T05:46:55;0.00;92.80
43099;DHT22;28715;51.988;6.020;2023-03-01T05:49:21;0.00;92.80
43099;DHT22;28715;51.988;6.020;2023-03-01T05:51:51;0.00;92.80
43099;DHT22;28715;51.988;6.020;2023-03-01T05:54:17;0.00;92.70
43099;DHT22;28715;51.988;6.020;2023-03-01T05:56:43;0.00;92.60
43099;DHT22;28715;51.988;6.020;2023-03-01T05:59:09;-0.10;92.80
43099;DHT22;28715;51.988;6.020;2023-03-01T06:01:35;-0.10;92.60
43099;DHT22;28715;51.988;6.020;2023-03-01T06:04:01;-0.10;92.70
43099;DHT22;28715;51.988;6.020;2023-03-01T06:06:28;-0.10;92.80
43099;DHT22;28715;51.988;6.020;2023-03-01T06:08:53;-0.10;93.00
43099;DHT22;28715;51.988;6.020;2023-03-01T06:11:20;-0.10;93.10
43099;DHT22;28715;51.988;6.020;2023-03-01T06:13:46;-0.10;93.20
43099;DHT22;28715;51.988;6.020;2023-03-01T06:16:12;-0.10;93.00
43099;DHT22;28715;51.988;6.020;2023-03-01T06:18:38;-0.20;92.90
43099;DHT22;28715;51.988;6.020;2023-03-01T06:21:05;-0.20;92.80
43099;DHT22;28715;51.988;6.020;2023-03-01T06:23:32;-0.20;92.70
43099;DHT22;28715;51.988;6.020;2023-03-01T06:25:58;-0.10;92.70
43099;DHT22;28715;51.988;6.020;2023-03-01T06:28:23;-0.10;92.70
43099;DHT22;28715;51.988;6.020;2023-03-01T06:30:50;-0.20;92.70
43099;DHT22;28715;51.988;6.020;2023-03-01T06:33:17;-0.10;92.70
43099;DHT22;28715;51.988;6.020;2023-03-01T06:35:48;-0.20;92.70
43099;DHT22;28715;51.988;6.020;2023-03-01T06:38:13;-0.10;92.80
43099;DHT22;28715;51.988;6.020;2023-03-01T06:40:40;-0.10;92.90
43099;DHT22;28715;51.988;6.020;2023-03-01T06:43:07;-0.10;92.90
43099;DHT22;28715;51.988;6.020;2023-03-01T06:45:33;0.00;92.90
43099;DHT22;28715;51.988;6.020;2023-03-01T06:48:03;0.00;93.00
43099;DHT22;28715;51.988;6.020;2023-03-01T06:50:30;0.00;93.00
43099;DHT22;28715;51.988;6.020;2023-03-01T06:52:56;0.10;93.20
43099;DHT22;28715;51.988;6.020;2023-03-01T06:55:22;0.10;93.20
43099;DHT22;28715;51.988;6.020;2023-03-01T06:57:47;0.20;93.40
43099;DHT22;28715;51.988;6.020;2023-03-01T07:00:14;0.30;93.60
43099;DHT22;28715;51.988;6.020;2023-03-01T07:02:39;0.40;93.80
43099;DHT22;28715;51.988;6.020;2023-03-01T07:05:05;0.50;93.90
43099;DHT22;28715;51.988;6.020;2023-03-01T07:07:31;0.70;93.90
43099;DHT22;28715;51.988;6.020;2023-03-01T07:09:56;0.90;93.80
43099;DHT22;28715;51.988;6.020;2023-03-01T07:12:22;1.10;93.60
43099;DHT22;28715;51.988;6.020;2023-03-01T07:14:47;1.20;93.40
43099;DHT22;28715;51.988;6.020;2023-03-01T07:17:13;1.40;93.20
43099;DHT22;28715;51.988;6.020;2023-03-01T07:19:39;1.50;93.00
43099;DHT22;28715;51.988;6.020;2023-03-01T07:22:04;1.60;92.70
43099;DHT22;28715;51.988;6.020;2023-03-01T07:24:33;1.80;92.50
43099;DHT22;28715;51.988;6.020;2023-03-01T07:26:58;2.00;92.30
43099;DHT22;28715;51.988;6.020;2023-03-01T07:29:24;2.10;92.00
43099;DHT22;28715;51.988;6.020;2023-03-01T07:31:49;2.30;91.90
43099;DHT22;28715;51.988;6.020;2023-03-01T07:34:15;2.50;91.60
43099;DHT22;28715;51.988;6.020;2023-03-01T07:36:41;2.60;91.40
43099;DHT22;28715;51.988;6.020;2023-03-01T07:39:09;2.80;91.00
43099;DHT22;28715;51.988;6.020;2023-03-01T07:41:35;3.00;90.60
43099;DHT22;28715;51.988;6.020;2023-03-01T07:44:00;3.10;90.40
43099;DHT22;28715;51.988;6.020;2023-03-01T07:46:26;3.30;90.20
43099;DHT22;28715;51.988;6.020;2023-03-01T07:48:52;3.50;90.00
43099;DHT22;28715;51.988;6.020;2023-03-01T07:51:17;3.60;90.20
43099;DHT22;28715;51.988;6.020;2023-03-01T07:53:46;3.80;90.00
43099;DHT22;28715;51.988;6.020;2023-03-01T07:56:14;4.00;90.10
43099;DHT22;28715;51.988;6.020;2023-03-01T07:58:46;4.20;89.50
43099;DHT22;28715;51.988;6.020;2023-03-01T08:01:15;4.40;88.90
43099;DHT22;28715;51.988;6.020;2023-03-01T08:03:41;4.70;88.30
43099;DHT22;28715;51.988;6.020;2023-03-01T08:06:09;4.90;87.30
43099;DHT22;28715;51.988;6.020;2023-03-01T08:08:35;5.00;86.40
43099;DHT22;28715;51.988;6.020;2023-03-01T08:11:03;5.20;85.80
43099;DHT22;28715;51.988;6.020;2023-03-01T08:13:29;5.40;85.40
43099;DHT22;28715;51.988;6.020;2023-03-01T08:16:01;5.60;84.90
43099;DHT22;28715;51.988;6.020;2023-03-01T08:18:27;6.00;84.00
43099;DHT22;28715;51.988;6.020;2023-03-01T08:20:52;6.30;82.90
43099;DHT22;28715;51.988;6.020;2023-03-01T08:23:18;6.60;82.50
43099;DHT22;28715;51.988;6.020;2023-03-01T08:25:44;6.90;81.00
43099;DHT22;28715;51.988;6.020;2023-03-01T08:28:09;7.20;79.90
43099;DHT22;28715;51.988;6.020;2023-03-01T08:30:35;7.50;79.30
43099;DHT22;28715;51.988;6.020;2023-03-01T08:33:00;7.70;77.60
43099;DHT22;28715;51.988;6.020;2023-03-01T08:35:26;7.90;77.10
43099;DHT22;28715;51.988;6.020;2023-03-01T08:37:51;8.10;77.20
43099;DHT22;28715;51.988;6.020;2023-03-01T08:40:17;8.30;76.80
43099;DHT22;28715;51.988;6.020;2023-03-01T08:42:43;8.50;75.80
43099;DHT22;28715;51.988;6.020;2023-03-01T08:45:09;8.70;75.00
43099;DHT22;28715;51.988;6.020;2023-03-01T08:47:35;8.90;74.80
43099;DHT22;28715;51.988;6.020;2023-03-01T08:50:02;9.10;74.70
43099;DHT22;28715;51.988;6.020;2023-03-01T08:52:28;9.40;73.90
43099;DHT22;28715;51.988;6.020;2023-03-01T08:54:55;9.60;72.30
43099;DHT22;28715;51.988;6.020;2023-03-01T08:57:21;9.70;72.70
43099;DHT22;28715;51.988;6.020;2023-03-01T08:59:46;9.80;72.80
43099;DHT22;28715;51.988;6.020;2023-03-01T09:02:15;9.90;70.30
43099;DHT22;28715;51.988;6.020;2023-03-01T09:04:41;9.90;71.40
43099;DHT22;28715;51.988;6.020;2023-03-01T09:07:08;10.00;70.80
43099;DHT22;28715;51.988;6.020;2023-03-01T09:09:34;10.10;70.80
43099;DHT22;28715;51.988;6.020;2023-03-01T09:12:00;10.20;71.30
43099;DHT22;28715;51.988;6.020;2023-03-01T09:14:26;10.30;70.90
43099;DHT22;28715;51.988;6.020;2023-03-01T09:16:52;10.50;70.70
43099;DHT22;28715;51.988;6.020;2023-03-01T09:19:17;10.60;69.00
43099;DHT22;28715;51.988;6.020;2023-03-01T09:21:43;10.60;69.70
43099;DHT22;28715;51.988;6.020;2023-03-01T09:24:19;10.70;69.20
43099;DHT22;28715;51.988;6.020;2023-03-01T09:26:45;10.70;69.10
43099;DHT22;28715;51.988;6.020;2023-03-01T09:29:11;10.90;68.70
43099;DHT22;28715;51.988;6.020;2023-03-01T09:31:38;10.90;69.30
43099;DHT22;28715;51.988;6.020;2023-03-01T09:34:04;11.00;69.20
43099;DHT22;28715;51.988;6.020;2023-03-01T09:36:30;11.10;68.60
43099;DHT22;28715;51.988;6.020;2023-03-01T09:38:56;11.20;68.20
43099;DHT22;28715;51.988;6.020;2023-03-01T09:41:46;11.20;66.50
43099;DHT22;28715;51.988;6.020;2023-03-01T09:44:29;11.10;68.10
43099;DHT22;28715;51.988;6.020;2023-03-01T09:46:57;11.10;68.40
43099;DHT22;28715;51.988;6.020;2023-03-01T09:49:28;11.10;68.30
43099;DHT22;28715;51.988;6.020;2023-03-01T09:54:24;11.20;68.30
43099;DHT22;28715;51.988;6.020;2023-03-01T09:57:20;11.30;66.60
43099;DHT22;28715;51.988;6.020;2023-03-01T10:08:34;11.40;65.30
43099;DHT22;28715;51.988;6.020;2023-03-01T10:11:03;11.40;66.00
43099;DHT22;28715;51.988;6.020;2023-03-01T10:13:46;11.40;65.40
43099;DHT22;28715;51.988;6.020;2023-03-01T10:16:43;11.40;65.60
43099;DHT22;28715;51.988;6.020;2023-03-01T10:19:17;11.40;65.50
43099;DHT22;28715;51.988;6.020;2023-03-01T10:21:46;11.60;64.80
43099;DHT22;28715;51.988;6.020;2023-03-01T10:24:17;11.60;64.10
43099;DHT22;28715;51.988;6.020;2023-03-01T10:26:57;11.60;63.70
43099;DHT22;28715;51.988;6.020;2023-03-01T10:29:30;11.50;62.60
43099;DHT22;28715;51.988;6.020;2023-03-01T10:31:57;11.20;63.80
43099;DHT22;28715;51.988;6.020;2023-03-01T10:34:30;11.10;64.70
43099;DHT22;28715;51.988;6.020;2023-03-01T10:36:59;11.10;64.60
43099;DHT22;28715;51.988;6.020;2023-03-01T10:39:26;11.20;63.80
43099;DHT22;28715;51.988;6.020;2023-03-01T10:42:04;11.20;63.30
43099;DHT22;28715;51.988;6.020;2023-03-01T10:44:43;11.20;63.20
43099;DHT22;28715;51.988;6.020;2023-03-01T10:47:18;11.10;63.50
43099;DHT22;28715;51.988;6.020;2023-03-01T10:50:08;11.10;63.00
43099;DHT22;28715;51.988;6.020;2023-03-01T10:52:56;11.20;62.90
43099;DHT22;28715;51.988;6.020;2023-03-01T10:55:28;11.20;61.80
43099;DHT22;28715;51.988;6.020;2023-03-01T11:00:32;10.90;63.10
43099;DHT22;28715;51.988;6.020;2023-03-01T11:05:26;10.70;63.90
43099;DHT22;28715;51.988;6.020;2023-03-01T11:07:55;10.80;63.90
43099;DHT22;28715;51.988;6.020;2023-03-01T11:10:28;10.80;64.10
43099;DHT22;28715;51.988;6.020;2023-03-01T11:13:07;10.80;65.10
43099;DHT22;28715;51.988;6.020;2023-03-01T11:15:33;10.90;63.70
43099;DHT22;28715;51.988;6.020;2023-03-01T11:17:59;10.80;64.30
43099;DHT22;28715;51.988;6.020;2023-03-01T11:20:35;10.80;64.20
43099;DHT22;28715;51.988;6.020;2023-03-01T11:23:05;10.90;64.70
43099;DHT22;28715;51.988;6.020;2023-03-01T11:25:40;10.90;63.00
43099;DHT22;28715;51.988;6.020;2023-03-01T11:28:16;10.80;62.90
43099;DHT22;28715;51.988;6.020;2023-03-01T11:36:46;10.70;62.60
43099;DHT22;28715;51.988;6.020;2023-03-01T11:38:50;10.50;64.50
43099;DHT22;28715;51.988;6.020;2023-03-01T11:41:20;10.40;64.60
43099;DHT22;28715;51.988;6.020;2023-03-01T11:43:58;10.40;63.80
43099;DHT22;28715;51.988;6.020;2023-03-01T11:46:50;10.20;63.10
43099;DHT22;28715;51.988;6.020;2023-03-01T11:57:43;9.90;65.60
43099;DHT22;28715;51.988;6.020;2023-03-01T12:02:52;10.00;64.60
43099;DHT22;28715;51.988;6.020;2023-03-01T12:08:46;9.80;66.20
43099;DHT22;28715;51.988;6.020;2023-03-01T12:25:10;9.50;65.80
43099;DHT22;28715;51.988;6.020;2023-03-01T12:33:31;9.10;65.40
43099;DHT22;28715;51.988;6.020;2023-03-01T12:38:37;9.00;66.70
43099;DHT22;28715;51.988;6.020;2023-03-01T12:44:24;8.90;65.80
43099;DHT22;28715;51.988;6.020;2023-03-01T12:50:12;8.60;67.60
43099;DHT22;28715;51.988;6.020;2023-03-01T12:52:57;8.80;68.10
43099;DHT22;28715;51.988;6.020;2023-03-01T12:58:20;9.10;68.90
43099;DHT22;28715;51.988;6.020;2023-03-01T13:01:14;9.20;66.70
43099;DHT22;28715;51.988;6.020;2023-03-01T13:04:30;9.30;66.60
43099;DHT22;28715;51.988;6.020;2023-03-01T13:06:54;9.40;66.10
43099;DHT22;28715;51.988;6.020;2023-03-01T13:11:56;9.40;66.40
43099;DHT22;28715;51.988;6.020;2023-03-01T13:16:53;9.20;64.40
43099;DHT22;28715;51.988;6.020;2023-03-01T13:19:21;9.20;65.30
43099;DHT22;28715;51.988;6.020;2023-03-01T13:21:49;9.20;65.90
43099;DHT22;28715;51.988;6.020;2023-03-01T13:24:38;9.20;67.20
43099;DHT22;28715;51.988;6.020;2023-03-01T13:34:50;9.40;65.70
43099;DHT22;28715;51.988;6.020;2023-03-01T13:37:31;9.40;66.40
43099;DHT22;28715;51.988;6.020;2023-03-01T13:39:59;9.40;66.30
43099;DHT22;28715;51.988;6.020;2023-03-01T13:42:41;9.50;66.50
43099;DHT22;28715;51.988;6.020;2023-03-01T13:45:39;9.60;67.20
43099;DHT22;28715;51.988;6.020;2023-03-01T13:48:29;9.60;64.00
43099;DHT22;28715;51.988;6.020;2023-03-01T13:51:50;9.40;63.30
43099;DHT22;28715;51.988;6.020;2023-03-01T13:58:11;9.40;66.30
43099;DHT22;28715;51.988;6.020;2023-03-01T14:01:35;9.30;65.90
43099;DHT22;28715;51.988;6.020;2023-03-01T14:04:28;9.40;66.10
43099;DHT22;28715;51.988;6.020;2023-03-01T14:07:31;9.40;64.50
43099;DHT22;28715;51.988;6.020;2023-03-01T14:10:11;9.40;66.10
43099;DHT22;28715;51.988;6.020;2023-03-01T14:15:50;9.40;66.40
43099;DHT22;28715;51.988;6.020;2023-03-01T14:18:36;9.40;65.70
43099;DHT22;28715;51.988;6.020;2023-03-01T14:21:08;9.40;65.00
43099;DHT22;28715;51.988;6.020;2023-03-01T14:23:33;9.30;64.90
43099;DHT22;28715;51.988;6.020;2023-03-01T14:26:01;9.30;65.30
43099;DHT22;28715;51.988;6.020;2023-03-01T14:28:31;9.30;66.00
43099;DHT22;28715;51.988;6.020;2023-03-01T14:31:00;9.30;66.10
43099;DHT22;28715;51.988;6.020;2023-03-01T14:33:30;9.40;67.10
43099;DHT22;28715;51.988;6.020;2023-03-01T14:36:04;9.40;65.20
43099;DHT22;28715;51.988;6.020;2023-03-01T14:38:41;9.20;65.60
43099;DHT22;28715;51.988;6.020;2023-03-01T14:41:32;9.10;64.10
43099;DHT22;28715;51.988;6.020;2023-03-01T14:46:43;9.00;65.40
43099;DHT22;28715;51.988;6.020;2023-03-01T14:49:19;9.00;65.80
43099;DHT22;28715;51.988;6.020;2023-03-01T14:52:06;9.00;65.80
43099;DHT22;28715;51.988;6.020;2023-03-01T14:54:43;9.10;66.40
43099;DHT22;28715;51.988;6.020;2023-03-01T14:57:22;9.10;64.20
43099;DHT22;28715;51.988;6.020;2023-03-01T14:59:52;9.00;64.90
43099;DHT22;28715;51.988;6.020;2023-03-01T15:02:21;9.00;64.10
43099;DHT22;28715;51.988;6.020;2023-03-01T15:04:56;8.90;65.70
43099;DHT22;28715;51.988;6.020;2023-03-01T15:07:28;8.90;63.70
43099;DHT22;28715;51.988;6.020;2023-03-01T15:09:55;8.90;64.90
43099;DHT22;28715;51.988;6.020;2023-03-01T15:14:53;8.80;66.10
43099;DHT22;28715;51.988;6.020;2023-03-01T15:17:33;8.90;66.00
43099;DHT22;28715;51.988;6.020;2023-03-01T15:20:02;8.80;64.50
43099;DHT22;28715;51.988;6.020;2023-03-01T15:22:29;8.70;65.00
43099;DHT22;28715;51.988;6.020;2023-03-01T15:24:55;8.70;64.80
43099;DHT22;28715;51.988;6.020;2023-03-01T15:27:23;8.70;65.50
43099;DHT22;28715;51.988;6.020;2023-03-01T15:32:28;8.60;65.90
43099;DHT22;28715;51.988;6.020;2023-03-01T15:34:54;8.60;66.00
43099;DHT22;28715;51.988;6.020;2023-03-01T15:40:26;8.70;67.90
43099;DHT22;28715;51.988;6.020;2023-03-01T15:43:01;8.70;67.10
43099;DHT22;28715;51.988;6.020;2023-03-01T15:45:29;8.60;67.40
43099;DHT22;28715;51.988;6.020;2023-03-01T15:48:01;8.60;68.30
43099;DHT22;28715;51.988;6.020;2023-03-01T15:50:31;8.60;67.20
43099;DHT22;28715;51.988;6.020;2023-03-01T15:53:05;8.60;67.70
43099;DHT22;28715;51.988;6.020;2023-03-01T15:55:36;8.60;67.70
43099;DHT22;28715;51.988;6.020;2023-03-01T15:58:22;8.60;67.70
43099;DHT22;28715;51.988;6.020;2023-03-01T16:00:49;8.50;68.10
43099;DHT22;28715;51.988;6.020;2023-03-01T16:03:21;8.50;68.10
43099;DHT22;28715;51.988;6.020;2023-03-01T16:05:48;8.50;67.70
43099;DHT22;28715;51.988;6.020;2023-03-01T16:08:14;8.40;66.50
43099;DHT22;28715;51.988;6.020;2023-03-01T16:10:41;8.40;67.00
43099;DHT22;28715;51.988;6.020;2023-03-01T16:13:09;8.30;67.20
43099;DHT22;28715;51.988;6.020;2023-03-01T16:15:35;8.30;68.00
43099;DHT22;28715;51.988;6.020;2023-03-01T16:18:01;8.30;67.70
43099;DHT22;28715;51.988;6.020;2023-03-01T16:20:28;8.20;67.10
43099;DHT22;28715;51.988;6.020;2023-03-01T16:22:54;8.20;67.70
43099;DHT22;28715;51.988;6.020;2023-03-01T16:25:21;8.20;67.50
43099;DHT22;28715;51.988;6.020;2023-03-01T16:27:48;8.10;68.40
43099;DHT22;28715;51.988;6.020;2023-03-01T16:30:20;8.10;68.60
43099;DHT22;28715;51.988;6.020;2023-03-01T16:32:47;8.00;68.30
43099;DHT22;28715;51.988;6.020;2023-03-01T16:35:15;8.00;68.30
43099;DHT22;28715;51.988;6.020;2023-03-01T16:37:41;7.90;68.90
43099;DHT22;28715;51.988;6.020;2023-03-01T16:40:16;7.90;69.90
43099;DHT22;28715;51.988;6.020;2023-03-01T16:42:42;7.90;69.40
43099;DHT22;28715;51.988;6.020;2023-03-01T16:45:08;7.80;69.60
43099;DHT22;28715;51.988;6.020;2023-03-01T16:47:34;7.70;69.90
43099;DHT22;28715;51.988;6.020;2023-03-01T16:50:00;7.70;70.20
43099;DHT22;28715;51.988;6.020;2023-03-01T16:52:26;7.60;70.70
43099;DHT22;28715;51.988;6.020;2023-03-01T16:54:52;7.60;70.50
43099;DHT22;28715;51.988;6.020;2023-03-01T16:57:18;7.50;70.80
43099;DHT22;28715;51.988;6.020;2023-03-01T16:59:43;7.50;71.90
43099;DHT22;28715;51.988;6.020;2023-03-01T17:02:13;7.40;72.00
43099;DHT22;28715;51.988;6.020;2023-03-01T17:04:40;7.30;73.10
43099;DHT22;28715;51.988;6.020;2023-03-01T17:07:05;7.30;73.30
43099;DHT22;28715;51.988;6.020;2023-03-01T17:09:35;7.20;73.00
43099;DHT22;28715;51.988;6.020;2023-03-01T17:12:01;7.10;72.80
43099;DHT22;28715;51.988;6.020;2023-03-01T17:14:26;7.00;72.50
43099;DHT22;28715;51.988;6.020;2023-03-01T17:16:52;7.00;73.30
43099;DHT22;28715;51.988;6.020;2023-03-01T17:19:18;7.00;73.80
43099;DHT22;28715;51.988;6.020;2023-03-01T17:21:44;7.00;74.40
43099;DHT22;28715;51.988;6.020;2023-03-01T17:24:11;6.90;74.10
43099;DHT22;28715;51.988;6.020;2023-03-01T17:26:37;6.90;74.30
43099;DHT22;28715;51.988;6.020;2023-03-01T17:29:03;6.80;73.70
43099;DHT22;28715;51.988;6.020;2023-03-01T17:31:30;6.80;74.00
43099;DHT22;28715;51.988;6.020;2023-03-01T17:33:56;6.70;74.10
43099;DHT22;28715;51.988;6.020;2023-03-01T17:36:22;6.70;74.00
43099;DHT22;28715;51.988;6.020;2023-03-01T17:38:48;6.70;74.20
43099;DHT22;28715;51.988;6.020;2023-03-01T17:41:14;6.60;74.20
43099;DHT22;28715;51.988;6.020;2023-03-01T17:43:42;6.60;74.50
43099;DHT22;28715;51.988;6.020;2023-03-01T17:46:07;6.50;74.90
43099;DHT22;28715;51.988;6.020;2023-03-01T17:48:33;6.50;75.10